createdAt,value
2018-08-12T00:00:25.236Z,88.20
2018-08-12T00:02:59.093Z,88.90
2018-08-12T00:05:32.851Z,89.90
2018-08-12T00:08:06.762Z,90.10
2018-08-12T00:10:41.299Z,90.70
2018-08-12T00:13:15.826Z,90.60
2018-08-12T00:15:49.610Z,90.60
2018-08-12T00:18:24.264Z,91.00
2018-08-12T00:20:58.089Z,90.90
2018-08-12T00:23:32.640Z,90.80
2018-08-12T00:26:06.502Z,90.80
2018-08-12T00:28:41.791Z,91.60
2018-08-12T00:31:15.712Z,91.60
2018-08-12T00:33:49.559Z,91.80
2018-08-12T00:36:24.156Z,92.50
2018-08-12T00:38:57.994Z,92.50
2018-08-12T00:41:32.463Z,92.80
2018-08-12T00:44:06.248Z,92.80
2018-08-12T00:46:39.929Z,92.60
2018-08-12T00:49:14.624Z,93.20
2018-08-12T00:51:49.183Z,93.70
2018-08-12T00:54:22.848Z,93.70
2018-08-12T00:56:56.702Z,93.90
2018-08-12T00:59:30.562Z,94.10
2018-08-12T01:02:04.442Z,94.20
2018-08-12T01:04:39.113Z,94.50
2018-08-12T01:07:13.712Z,95.00
2018-08-12T01:09:48.242Z,95.20
2018-08-12T01:12:22.098Z,95.20
2018-08-12T01:14:56.648Z,95.50
2018-08-12T01:17:30.369Z,95.40
2018-08-12T01:20:04.196Z,95.70
2018-08-12T01:22:37.955Z,95.80
2018-08-12T01:25:12.607Z,96.10
2018-08-12T01:27:47.139Z,96.40
2018-08-12T01:30:21.672Z,96.50
2018-08-12T01:32:55.485Z,96.40
2018-08-12T01:35:29.283Z,96.60
2018-08-12T01:38:03.999Z,97.20
2018-08-12T01:40:37.712Z,97.20
2018-08-12T01:43:11.589Z,97.80
2018-08-12T01:45:46.275Z,98.50
2018-08-12T01:48:20.882Z,99.10
2018-08-12T01:50:55.482Z,99.20
2018-08-12T01:53:29.299Z,99.20
2018-08-12T01:56:03.134Z,99.80
2018-08-12T01:58:37.692Z,99.90
2018-08-12T02:01:11.576Z,99.90
2018-08-12T02:03:46.271Z,99.90
2018-08-12T02:06:20.660Z,99.90
2018-08-12T02:08:54.404Z,99.90
2018-08-12T02:11:28.987Z,99.90
2018-08-12T02:14:03.552Z,99.90
2018-08-12T02:16:37.180Z,99.90
2018-08-12T02:19:11.097Z,99.90
2018-08-12T02:21:44.871Z,99.90
2018-08-12T02:24:19.476Z,99.90
2018-08-12T02:26:53.188Z,99.90
2018-08-12T02:29:27.004Z,99.90
2018-08-12T02:32:00.827Z,99.90
2018-08-12T02:34:35.393Z,99.90
2018-08-12T02:37:09.108Z,99.90
2018-08-12T02:39:42.903Z,99.90
2018-08-12T02:42:17.558Z,99.90
2018-08-12T02:44:51.261Z,99.90
2018-08-12T02:47:25.872Z,99.90
2018-08-12T02:50:00.471Z,99.90
2018-08-12T02:52:34.355Z,99.90
2018-08-12T02:55:09.032Z,99.90
2018-08-12T02:57:42.763Z,99.90
2018-08-12T03:00:17.325Z,99.90
2018-08-12T03:02:51.180Z,99.90
2018-08-12T03:05:24.924Z,99.90
2018-08-12T03:07:59.481Z,99.90
2018-08-12T03:10:33.227Z,99.90
2018-08-12T03:13:07.019Z,99.90
2018-08-12T03:15:40.922Z,99.90
2018-08-12T03:18:14.675Z,99.90
2018-08-12T03:20:49.352Z,99.90
2018-08-12T03:23:23.952Z,99.90
2018-08-12T03:25:57.695Z,99.90
2018-08-12T03:28:31.573Z,99.90
2018-08-12T03:31:05.447Z,99.90
2018-08-12T03:33:39.239Z,99.90
2018-08-12T03:36:12.996Z,99.90
2018-08-12T03:38:47.645Z,99.90
2018-08-12T03:41:22.273Z,99.90
2018-08-12T03:43:56.783Z,99.90
2018-08-12T03:46:30.504Z,99.90
2018-08-12T03:49:05.216Z,99.90
2018-08-12T03:51:38.940Z,99.90
2018-08-12T03:54:13.543Z,99.90
2018-08-12T03:56:48.061Z,99.90
2018-08-12T03:59:21.928Z,99.90
2018-08-12T04:01:55.727Z,99.90
2018-08-12T04:04:29.521Z,99.90
2018-08-12T04:07:03.331Z,99.90
2018-08-12T04:09:37.982Z,99.90
2018-08-12T04:12:11.765Z,99.90
2018-08-12T04:14:45.568Z,99.90
2018-08-12T04:17:19.403Z,99.90
2018-08-12T04:19:53.188Z,99.90
2018-08-12T04:22:26.984Z,99.90
2018-08-12T04:25:00.900Z,99.90
2018-08-12T04:27:34.579Z,99.90
2018-08-12T04:30:09.152Z,99.90
2018-08-12T04:32:43.607Z,99.90
2018-08-12T04:35:17.454Z,99.90
2018-08-12T04:37:51.149Z,99.90
2018-08-12T04:40:25.761Z,99.90
2018-08-12T04:42:59.468Z,99.90
2018-08-12T04:45:34.015Z,99.90
2018-08-12T04:48:07.883Z,99.90
2018-08-12T04:50:43.132Z,99.90
2018-08-12T04:53:16.928Z,99.90
2018-08-12T04:55:50.749Z,99.90
2018-08-12T04:58:24.577Z,99.90
2018-08-12T05:00:58.391Z,99.90
2018-08-12T05:03:33.978Z,99.90
2018-08-12T05:06:07.545Z,99.90
2018-08-12T05:08:42.120Z,99.90
2018-08-12T05:11:15.875Z,99.90
2018-08-12T05:13:49.755Z,99.90
2018-08-12T05:16:23.576Z,99.90
2018-08-12T05:18:57.440Z,99.90
2018-08-12T05:21:31.203Z,99.90
2018-08-12T05:24:05.090Z,99.90
2018-08-12T05:26:39.696Z,99.90
2018-08-12T05:29:14.317Z,99.90
2018-08-12T05:31:48.055Z,99.90
2018-08-12T05:34:22.629Z,99.90
2018-08-12T05:36:56.392Z,99.90
2018-08-12T05:39:30.243Z,99.90
2018-08-12T05:42:04.087Z,99.90
2018-08-12T05:44:37.945Z,99.90
2018-08-12T05:47:11.779Z,99.90
2018-08-12T05:49:45.579Z,99.90
2018-08-12T05:52:19.427Z,99.90
2018-08-12T05:54:54.097Z,99.90
2018-08-12T05:57:27.985Z,99.90
2018-08-12T06:13:10.986Z,99.90
2018-08-12T06:15:44.784Z,99.90
2018-08-12T06:18:18.665Z,99.90
2018-08-12T06:20:53.266Z,99.90
2018-08-12T06:23:26.971Z,99.90
2018-08-12T06:26:00.809Z,99.90
2018-08-12T06:28:35.386Z,99.90
2018-08-12T06:31:09.416Z,99.90
2018-08-12T06:33:44.002Z,99.90
2018-08-12T06:36:17.779Z,99.90
2018-08-12T06:38:51.510Z,99.90
2018-08-12T06:41:25.323Z,99.90
2018-08-12T06:43:59.222Z,99.90
2018-08-12T06:46:33.746Z,99.90
2018-08-12T06:49:07.527Z,99.90
2018-08-12T06:51:41.336Z,99.90
2018-08-12T06:54:15.072Z,99.90
2018-08-12T06:56:48.877Z,99.90
2018-08-12T06:59:22.711Z,99.90
2018-08-12T07:01:56.564Z,99.90
2018-08-12T07:04:30.291Z,99.90
2018-08-12T07:07:04.152Z,99.90
2018-08-12T07:09:38.749Z,99.90
2018-08-12T07:12:13.142Z,99.90
2018-08-12T07:14:46.955Z,99.90
2018-08-12T07:17:20.735Z,99.90
2018-08-12T07:19:54.465Z,99.90
2018-08-12T07:22:28.236Z,99.90
2018-08-12T07:25:02.148Z,99.90
2018-08-12T07:27:36.705Z,99.90
2018-08-12T07:30:10.486Z,99.90
2018-08-12T07:32:44.263Z,99.90
2018-08-12T07:35:18.881Z,99.90
2018-08-12T07:37:53.541Z,99.90
2018-08-12T07:40:27.325Z,99.90
2018-08-12T07:43:01.141Z,99.90
2018-08-12T07:45:35.119Z,99.90
2018-08-12T07:48:08.858Z,99.90
2018-08-12T07:50:42.727Z,99.90
2018-08-12T07:53:16.564Z,99.90
2018-08-12T07:55:50.383Z,99.90
2018-08-12T07:58:24.145Z,99.90
2018-08-12T08:00:58.024Z,99.90
2018-08-12T08:03:32.573Z,99.70
2018-08-12T08:06:06.428Z,99.70
2018-08-12T08:08:41.622Z,98.30
2018-08-12T08:11:15.564Z,98.00
2018-08-12T08:13:49.941Z,95.50
2018-08-12T08:16:23.778Z,95.50
2018-08-12T08:18:57.658Z,93.40
2018-08-12T08:21:31.387Z,93.80
2018-08-12T08:24:06.018Z,85.40
2018-08-12T08:26:39.890Z,85.40
2018-08-12T08:29:14.408Z,68.60
2018-08-12T08:31:48.361Z,68.50
2018-08-12T08:34:21.947Z,62.80
2018-08-12T08:36:56.579Z,57.70
2018-08-12T08:39:30.349Z,57.70
2018-08-12T08:42:03.985Z,55.50
2018-08-12T08:44:38.694Z,53.50
2018-08-12T08:47:12.537Z,53.50
2018-08-12T08:49:46.362Z,51.70
2018-08-12T08:52:20.199Z,50.90
2018-08-12T08:54:54.073Z,49.20
2018-08-12T08:57:27.859Z,50.00
2018-08-12T09:00:01.763Z,47.70
2018-08-12T09:02:35.435Z,48.80
2018-08-12T09:05:09.035Z,47.00
2018-08-12T09:07:43.003Z,45.80
2018-08-12T09:10:17.584Z,44.10
2018-08-12T09:12:51.315Z,44.10
2018-08-12T09:15:25.231Z,42.10
2018-08-12T09:17:58.996Z,41.70
2018-08-12T09:20:32.811Z,42.10
2018-08-12T09:23:07.395Z,41.50
2018-08-12T09:25:41.251Z,41.40
2018-08-12T09:28:15.108Z,42.70
2018-08-12T09:30:49.643Z,42.90
2018-08-12T09:33:24.255Z,40.70
2018-08-12T09:35:58.893Z,40.60
2018-08-12T09:38:32.610Z,40.80
2018-08-12T09:41:06.537Z,40.60
2018-08-12T09:43:40.340Z,39.60
2018-08-12T09:46:14.198Z,38.60
2018-08-12T09:48:48.723Z,37.70
2018-08-12T09:51:22.637Z,37.70
2018-08-12T09:53:57.156Z,38.40
2018-08-12T09:56:31.051Z,38.40
2018-08-12T09:59:05.620Z,38.70
2018-08-12T10:01:39.443Z,38.60
2018-08-12T10:04:13.148Z,39.40
2018-08-12T10:06:46.891Z,39.40
2018-08-12T10:09:21.499Z,39.50
2018-08-12T10:11:55.378Z,39.50
2018-08-12T10:14:29.119Z,38.90
2018-08-12T10:17:03.008Z,37.70
2018-08-12T10:19:36.823Z,37.70
2018-08-12T10:22:11.405Z,37.40
2018-08-12T10:24:45.918Z,36.20
2018-08-12T10:27:19.792Z,35.50
2018-08-12T10:29:54.348Z,35.30
2018-08-12T10:32:29.021Z,35.70
2018-08-12T10:35:02.786Z,35.70
2018-08-12T10:37:36.552Z,35.60
2018-08-12T10:40:11.079Z,34.70
2018-08-12T10:42:45.163Z,34.70
2018-08-12T10:45:19.066Z,35.90
2018-08-12T10:47:53.635Z,35.60
2018-08-12T10:50:27.420Z,35.60
2018-08-12T10:53:01.181Z,36.50
2018-08-12T10:55:34.944Z,37.10
2018-08-12T10:58:08.722Z,37.00
2018-08-12T11:00:42.436Z,36.20
2018-08-12T11:03:16.227Z,36.30
2018-08-12T11:05:49.936Z,37.60
2018-08-12T11:08:23.763Z,37.20
2018-08-12T11:10:57.563Z,36.10
2018-08-12T11:13:31.228Z,35.00
2018-08-12T11:16:05.111Z,35.30
2018-08-12T11:18:38.971Z,35.30
2018-08-12T11:21:12.767Z,36.70
2018-08-12T11:23:46.585Z,35.70
2018-08-12T11:26:21.164Z,34.80
2018-08-12T11:28:55.017Z,34.80
2018-08-12T11:31:29.615Z,35.00
2018-08-12T11:34:04.952Z,34.20
2018-08-12T11:36:38.615Z,34.20
2018-08-12T11:39:12.496Z,34.30
2018-08-12T11:41:46.218Z,35.10
2018-08-12T11:44:20.064Z,35.10
2018-08-12T11:46:53.834Z,35.40
2018-08-12T11:49:28.280Z,36.50
2018-08-12T11:52:02.112Z,36.00
2018-08-12T11:54:37.340Z,36.30
2018-08-12T11:57:11.920Z,35.90
2018-08-12T11:59:45.688Z,35.90
2018-08-12T12:02:20.280Z,34.40
2018-08-12T12:04:54.807Z,35.00
2018-08-12T12:07:28.634Z,34.90
2018-08-12T12:10:02.457Z,34.00
2018-08-12T12:12:37.067Z,33.90
2018-08-12T12:15:10.917Z,33.90
2018-08-12T12:17:45.500Z,32.20
2018-08-12T12:20:19.345Z,32.20
2018-08-12T12:22:53.199Z,31.90
2018-08-12T12:25:27.052Z,30.90
2018-08-12T12:28:00.883Z,31.70
2018-08-12T12:30:34.647Z,30.60
2018-08-12T12:33:09.269Z,30.70
2018-08-12T12:35:43.100Z,30.60
2018-08-12T12:38:16.998Z,30.90
2018-08-12T12:40:50.841Z,30.60
2018-08-12T12:43:24.619Z,31.20
2018-08-12T12:45:58.444Z,30.40
2018-08-12T12:48:32.289Z,30.00
2018-08-12T12:51:06.149Z,29.90
2018-08-12T12:53:40.725Z,29.50
2018-08-12T12:56:14.335Z,29.50
2018-08-12T12:58:49.556Z,29.90
2018-08-12T13:01:23.265Z,29.90
2018-08-12T13:03:57.755Z,30.30
2018-08-12T13:06:32.315Z,29.90
2018-08-12T13:09:06.820Z,29.90
2018-08-12T13:11:41.466Z,30.00
2018-08-12T13:14:16.090Z,29.80
2018-08-12T13:16:49.977Z,29.80
2018-08-12T13:19:23.594Z,29.40
2018-08-12T13:21:58.116Z,29.60
2018-08-12T13:24:31.891Z,29.60
2018-08-12T13:27:06.426Z,29.80
2018-08-12T13:29:40.916Z,29.70
2018-08-12T13:32:14.736Z,29.80
2018-08-12T13:34:49.279Z,29.60
2018-08-12T13:37:23.798Z,29.00
2018-08-12T13:39:57.592Z,29.00
2018-08-12T13:42:31.390Z,29.10
2018-08-12T13:45:05.204Z,28.80
2018-08-12T13:47:39.075Z,28.50
2018-08-12T13:50:12.859Z,28.60
2018-08-12T13:52:46.713Z,29.70
2018-08-12T13:55:20.525Z,28.80
2018-08-12T13:57:54.357Z,29.20
2018-08-12T14:00:27.940Z,28.70
2018-08-12T14:03:01.811Z,28.70
2018-08-12T14:05:36.414Z,28.70
2018-08-12T14:08:10.185Z,28.60
2018-08-12T14:10:44.730Z,27.90
2018-08-12T14:13:18.563Z,27.90
2018-08-12T14:15:52.334Z,28.10
2018-08-12T14:18:26.130Z,28.10
2018-08-12T14:20:59.981Z,28.20
2018-08-12T14:23:34.549Z,27.70
2018-08-12T14:26:08.396Z,27.70
2018-08-12T14:28:42.143Z,27.80
2018-08-12T14:31:16.035Z,27.30
2018-08-12T14:33:50.619Z,28.00
2018-08-12T14:36:24.338Z,27.50
2018-08-12T14:38:58.962Z,28.60
2018-08-12T14:41:32.805Z,28.60
2018-08-12T14:44:06.593Z,28.50
2018-08-12T14:46:40.325Z,28.20
2018-08-12T14:49:14.132Z,28.80
2018-08-12T14:51:47.992Z,28.20
2018-08-12T14:54:21.835Z,28.40
2018-08-12T14:56:55.491Z,28.80
2018-08-12T14:59:29.252Z,28.90
2018-08-12T15:02:03.151Z,29.20
2018-08-12T15:04:38.040Z,29.50
2018-08-12T15:07:11.906Z,29.60
2018-08-12T15:09:45.738Z,29.20
2018-08-12T15:12:19.561Z,29.30
2018-08-12T15:14:54.300Z,29.30
2018-08-12T15:17:28.137Z,29.30
2018-08-12T15:20:01.913Z,29.70
2018-08-12T15:22:36.640Z,29.80
2018-08-12T15:25:10.332Z,29.70
2018-08-12T15:27:44.317Z,30.00
2018-08-12T15:30:17.951Z,29.80
2018-08-12T15:32:51.799Z,29.70
2018-08-12T15:35:25.725Z,29.30
2018-08-12T15:37:59.499Z,29.30
2018-08-12T15:40:33.460Z,29.40
2018-08-12T15:43:07.217Z,29.60
2018-08-12T15:45:41.035Z,29.30
2018-08-12T15:48:15.592Z,29.60
2018-08-12T15:50:50.210Z,29.40
2018-08-12T15:53:24.064Z,29.40
2018-08-12T15:55:58.615Z,29.40
2018-08-12T15:58:33.898Z,29.80
2018-08-12T16:01:07.793Z,29.80
2018-08-12T16:03:41.659Z,30.10
2018-08-12T16:06:15.281Z,29.70
2018-08-12T16:08:50.674Z,30.30
2018-08-12T16:11:25.159Z,30.00
2018-08-12T16:13:59.715Z,30.00
2018-08-12T16:16:33.551Z,30.00
2018-08-12T16:19:07.488Z,30.00
2018-08-12T16:21:41.344Z,30.20
2018-08-12T16:24:15.101Z,30.40
2018-08-12T16:26:49.636Z,30.80
2018-08-12T16:29:23.386Z,30.80
2018-08-12T16:31:58.707Z,30.70
2018-08-12T16:34:32.554Z,30.70
2018-08-12T16:37:07.145Z,31.40
2018-08-12T16:39:42.192Z,31.20
2018-08-12T16:42:16.799Z,31.50
2018-08-12T16:44:51.295Z,31.60
2018-08-12T16:47:25.060Z,31.60
2018-08-12T16:49:58.796Z,31.70
2018-08-12T16:52:32.692Z,31.60
2018-08-12T16:55:06.416Z,31.70
2018-08-12T16:57:40.227Z,32.10
2018-08-12T17:00:14.066Z,32.10
2018-08-12T17:02:49.282Z,32.40
2018-08-12T17:05:23.136Z,32.30
2018-08-12T17:07:57.729Z,32.50
2018-08-12T17:10:31.401Z,32.50
2018-08-12T17:13:05.159Z,32.80
2018-08-12T17:15:39.691Z,32.90
2018-08-12T17:18:13.525Z,33.00
2018-08-12T17:20:48.051Z,32.80
2018-08-12T17:23:21.939Z,32.70
2018-08-12T17:25:55.864Z,32.80
2018-08-12T17:28:29.623Z,32.60
2018-08-12T17:31:04.027Z,32.50
2018-08-12T17:33:37.795Z,32.50
2018-08-12T17:36:12.215Z,33.20
2018-08-12T17:38:46.208Z,33.10
2018-08-12T17:41:21.301Z,33.20
2018-08-12T17:43:55.208Z,33.20
2018-08-12T17:46:28.983Z,32.90
2018-08-12T17:49:03.636Z,33.60
2018-08-12T17:51:37.732Z,33.50
2018-08-12T17:54:11.492Z,33.50
2018-08-12T17:56:45.227Z,33.70
2018-08-12T17:59:18.836Z,33.50
2018-08-12T18:01:53.469Z,34.20
2018-08-12T18:04:27.308Z,34.20
2018-08-12T18:07:01.139Z,34.30
2018-08-12T18:09:34.846Z,34.20
2018-08-12T18:12:08.679Z,34.30
2018-08-12T18:14:42.364Z,34.80
2018-08-12T18:17:16.285Z,35.30
2018-08-12T18:19:50.019Z,35.90
2018-08-12T18:22:23.781Z,35.90
2018-08-12T18:24:58.351Z,36.40
2018-08-12T18:27:32.954Z,37.10
2018-08-12T18:30:06.656Z,36.60
2018-08-12T18:32:40.553Z,36.80
2018-08-12T18:35:14.219Z,37.40
2018-08-12T18:37:48.837Z,38.20
2018-08-12T18:40:23.944Z,38.70
2018-08-12T18:42:58.698Z,39.10
2018-08-12T18:45:32.501Z,39.10
2018-08-12T18:48:06.487Z,39.60
2018-08-12T18:50:40.067Z,39.80
2018-08-12T18:53:13.841Z,40.50
2018-08-12T18:55:48.431Z,41.00
2018-08-12T18:58:22.177Z,41.00
2018-08-12T19:00:56.721Z,41.40
2018-08-12T19:03:30.567Z,41.40
2018-08-12T19:06:05.154Z,42.20
2018-08-12T19:08:39.019Z,42.20
2018-08-12T19:11:13.596Z,43.40
2018-08-12T19:13:48.156Z,43.80
2018-08-12T19:16:22.531Z,44.30
2018-08-12T19:18:57.088Z,44.80
2018-08-12T19:21:30.893Z,44.80
2018-08-12T19:24:04.807Z,45.50
2018-08-12T19:26:39.418Z,45.90
2018-08-12T19:29:13.276Z,45.80
2018-08-12T19:31:46.970Z,46.00
2018-08-12T19:34:20.820Z,46.80
2018-08-12T19:36:54.538Z,46.80
2018-08-12T19:39:28.249Z,46.90
2018-08-12T19:42:02.847Z,47.20
2018-08-12T19:44:36.688Z,47.10
2018-08-12T19:47:10.403Z,47.80
2018-08-12T19:49:45.053Z,47.40
2018-08-12T19:52:19.623Z,47.60
2018-08-12T19:54:53.511Z,47.60
2018-08-12T19:57:28.180Z,47.80
2018-08-12T20:00:02.052Z,47.70
2018-08-12T20:02:36.624Z,48.40
2018-08-12T20:05:10.434Z,48.20
2018-08-12T20:07:44.545Z,48.20
2018-08-12T20:10:19.127Z,48.60
2018-08-12T20:12:53.707Z,49.40
2018-08-12T20:15:28.179Z,49.50
2018-08-12T20:18:02.047Z,49.50
2018-08-12T20:20:36.860Z,50.00
2018-08-12T20:23:10.648Z,49.90
2018-08-12T20:25:45.252Z,50.10
2018-08-12T20:28:19.010Z,50.00
2018-08-12T20:30:52.890Z,50.10
2018-08-12T20:33:26.858Z,50.20
2018-08-12T20:36:01.443Z,50.60
2018-08-12T20:38:35.296Z,50.30
2018-08-12T20:41:09.049Z,51.00
2018-08-12T20:43:42.895Z,50.60
2018-08-12T20:46:16.705Z,51.30
2018-08-12T20:48:50.455Z,51.50
2018-08-12T20:51:24.996Z,52.00
2018-08-12T20:53:58.745Z,51.90
2018-08-12T20:56:32.593Z,52.00
2018-08-12T20:59:06.365Z,52.40
2018-08-12T21:01:41.028Z,52.50
2018-08-12T21:04:14.830Z,52.50
2018-08-12T21:06:48.700Z,53.00
2018-08-12T21:09:22.590Z,53.00
2018-08-12T21:11:56.662Z,52.70
2018-08-12T21:14:30.340Z,53.30
2018-08-12T21:17:04.970Z,54.00
2018-08-12T21:19:38.763Z,54.00
2018-08-12T21:22:13.299Z,53.60
2018-08-12T21:24:47.952Z,53.20
2018-08-12T21:27:21.738Z,53.20
2018-08-12T21:29:55.581Z,53.40
2018-08-12T21:32:30.112Z,53.70
2018-08-12T21:35:04.727Z,54.00
2018-08-12T21:37:38.474Z,54.00
2018-08-12T21:40:13.063Z,54.70
2018-08-12T21:42:47.076Z,54.70
2018-08-12T21:45:21.098Z,54.70
2018-08-12T21:47:54.813Z,55.10
2018-08-12T21:50:29.399Z,55.40
2018-08-12T21:53:03.990Z,55.80
2018-08-12T21:55:37.837Z,55.80
2018-08-12T21:58:11.652Z,56.30
2018-08-12T22:00:46.246Z,57.30
2018-08-12T22:03:20.110Z,57.30
2018-08-12T22:05:53.902Z,57.50
2018-08-12T22:08:27.595Z,57.60
2018-08-12T22:11:02.255Z,58.00
2018-08-12T22:13:36.034Z,58.00
2018-08-12T22:16:09.866Z,58.30
2018-08-12T22:18:43.719Z,58.30
2018-08-12T22:21:18.413Z,58.70
2018-08-12T22:23:52.170Z,58.70
2018-08-12T22:26:26.831Z,59.50
2018-08-12T22:29:00.647Z,59.50
2018-08-12T22:31:34.407Z,59.30
2018-08-12T22:34:08.207Z,59.50
2018-08-12T22:36:42.119Z,59.70
2018-08-12T22:39:15.871Z,60.10
2018-08-12T22:41:50.528Z,59.90
2018-08-12T22:44:24.186Z,59.90
2018-08-12T22:46:58.110Z,60.90
2018-08-12T22:49:32.703Z,61.40
2018-08-12T22:52:07.363Z,62.20
2018-08-12T22:54:41.754Z,63.30
2018-08-12T22:57:16.424Z,64.00
2018-08-12T22:59:50.241Z,64.00
2018-08-12T23:02:24.053Z,64.60
2018-08-12T23:04:57.836Z,64.80
2018-08-12T23:07:31.677Z,65.00
2018-08-12T23:10:05.536Z,65.40
2018-08-12T23:12:39.230Z,65.40
2018-08-12T23:15:25.017Z,65.60
2018-08-12T23:17:58.711Z,66.10
2018-08-12T23:20:32.651Z,66.80
2018-08-12T23:23:07.618Z,66.80
2018-08-12T23:25:41.382Z,67.20
2018-08-12T23:28:15.123Z,67.00
2018-08-12T23:30:49.594Z,67.80
2018-08-12T23:33:23.400Z,67.80
2018-08-12T23:35:57.132Z,67.60
2018-08-12T23:38:31.304Z,68.30
2018-08-12T23:41:04.919Z,69.40
2018-08-12T23:43:38.655Z,69.80
2018-08-12T23:46:12.546Z,70.30
2018-08-12T23:48:47.161Z,71.80
2018-08-12T23:51:20.863Z,71.80
2018-08-12T23:53:55.410Z,73.10
2018-08-12T23:56:29.283Z,72.90
2018-08-12T23:59:03.920Z,73.80
